createdAt,value
2018-12-23T00:00:10.546Z,1004.73
2018-12-23T00:01:10.545Z,1004.70
2018-12-23T00:02:10.521Z,1004.77
2018-12-23T00:03:10.524Z,1004.73
2018-12-23T00:04:10.472Z,1004.70
2018-12-23T00:05:11.641Z,1004.76
2018-12-23T00:06:10.444Z,1004.77
2018-12-23T00:07:10.424Z,1004.74
2018-12-23T00:08:10.403Z,1004.75
2018-12-23T00:09:10.397Z,1004.69
2018-12-23T00:10:10.365Z,1004.72
2018-12-23T00:11:10.357Z,1004.70
2018-12-23T00:12:10.340Z,1004.69
2018-12-23T00:13:10.331Z,1004.64
2018-12-23T00:14:10.322Z,1004.71
2018-12-23T00:15:10.285Z,1004.70
2018-12-23T00:16:10.256Z,1004.74
2018-12-23T00:17:10.271Z,1004.77
2018-12-23T00:18:10.231Z,1004.77
2018-12-23T00:19:10.208Z,1004.75
2018-12-23T00:20:10.186Z,1004.74
2018-12-23T00:21:10.163Z,1004.78
2018-12-23T00:22:10.164Z,1004.78
2018-12-23T00:23:10.147Z,1004.82
2018-12-23T00:24:10.144Z,1004.78
2018-12-23T00:25:10.254Z,1004.81
2018-12-23T00:26:10.080Z,1004.83
2018-12-23T00:27:10.054Z,1004.89
2018-12-23T00:28:10.038Z,1004.80
2018-12-23T00:29:10.031Z,1004.76
2018-12-23T00:30:09.998Z,1004.83
2018-12-23T00:31:09.991Z,1004.78
2018-12-23T00:32:09.975Z,1004.80
2018-12-23T00:33:09.950Z,1004.68
2018-12-23T00:34:09.923Z,1004.77
2018-12-23T00:35:09.916Z,1004.77
2018-12-23T00:36:09.900Z,1004.79
2018-12-23T00:37:09.874Z,1004.80
2018-12-23T00:38:09.872Z,1004.79
2018-12-23T00:39:09.841Z,1004.79
2018-12-23T00:40:09.875Z,1004.83
2018-12-23T00:41:09.810Z,1004.80
2018-12-23T00:42:09.796Z,1004.78
2018-12-23T00:43:09.767Z,1004.79
2018-12-23T00:44:09.755Z,1004.78
2018-12-23T00:45:09.732Z,1004.76
2018-12-23T00:46:09.715Z,1004.74
2018-12-23T00:47:09.722Z,1004.76
2018-12-23T00:48:09.683Z,1004.76
2018-12-23T00:49:09.668Z,1004.72
2018-12-23T00:50:09.647Z,1004.76
2018-12-23T00:51:09.627Z,1004.76
2018-12-23T00:52:09.619Z,1004.78
2018-12-23T00:53:09.592Z,1004.82
2018-12-23T00:54:09.563Z,1004.84
2018-12-23T00:55:09.559Z,1004.90
2018-12-23T00:56:09.679Z,1004.91
2018-12-23T00:57:09.529Z,1004.92
2018-12-23T00:58:09.501Z,1004.90
2018-12-23T00:59:09.481Z,1004.95
2018-12-23T01:00:09.458Z,1004.91
2018-12-23T01:01:09.433Z,1004.94
2018-12-23T01:02:09.453Z,1004.98
2018-12-23T01:03:09.409Z,1004.94
2018-12-23T01:04:09.400Z,1004.96
2018-12-23T01:05:09.370Z,1004.99
2018-12-23T01:06:09.344Z,1005.01
2018-12-23T01:07:09.364Z,1005.03
2018-12-23T01:08:09.310Z,1004.99
2018-12-23T01:09:09.303Z,1005.04
2018-12-23T01:10:09.287Z,1005.04
2018-12-23T01:11:09.269Z,1005.04
2018-12-23T01:12:09.265Z,1005.01
2018-12-23T01:13:09.221Z,1005.05
2018-12-23T01:14:09.198Z,1005.07
2018-12-23T01:15:09.183Z,1005.01
2018-12-23T01:16:09.166Z,1005.06
2018-12-23T01:17:09.148Z,1005.02
2018-12-23T01:18:09.144Z,1005.06
2018-12-23T01:19:09.113Z,1005.01
2018-12-23T01:20:09.097Z,1005.03
2018-12-23T01:21:09.069Z,1005.02
2018-12-23T01:22:09.065Z,1005.08
2018-12-23T01:23:09.074Z,1005.08
2018-12-23T01:24:09.030Z,1005.03
2018-12-23T01:25:09.003Z,1005.08
2018-12-23T01:26:08.993Z,1005.08
2018-12-23T01:27:08.965Z,1005.09
2018-12-23T01:28:08.981Z,1005.05
2018-12-23T01:29:08.962Z,1005.03
2018-12-23T01:30:08.904Z,1005.01
2018-12-23T01:31:08.898Z,1004.99
2018-12-23T01:32:08.879Z,1005.06
2018-12-23T01:33:08.991Z,1005.12
2018-12-23T01:34:08.839Z,1005.12
2018-12-23T01:35:08.818Z,1005.12
2018-12-23T01:36:08.795Z,1005.14
2018-12-23T01:37:08.792Z,1005.13
2018-12-23T01:38:08.766Z,1005.07
2018-12-23T01:39:08.792Z,1005.07
2018-12-23T01:40:08.739Z,1005.17
2018-12-23T01:41:08.707Z,1005.16
2018-12-23T01:42:08.694Z,1005.12
2018-12-23T01:43:29.677Z,1005.18
2018-12-23T01:44:08.666Z,1005.18
2018-12-23T01:45:08.642Z,1005.20
2018-12-23T01:46:08.618Z,1005.22
2018-12-23T01:47:08.597Z,1005.24
2018-12-23T01:48:08.583Z,1005.26
2018-12-23T01:49:08.595Z,1005.20
2018-12-23T01:50:08.550Z,1005.21
2018-12-23T01:51:08.527Z,1005.18
2018-12-23T01:52:08.510Z,1005.18
2018-12-23T01:53:08.489Z,1005.25
2018-12-23T01:54:08.703Z,1005.28
2018-12-23T01:55:08.460Z,1005.29
2018-12-23T01:56:08.439Z,1005.33
2018-12-23T01:57:08.425Z,1005.31
2018-12-23T01:58:08.419Z,1005.33
2018-12-23T01:59:08.384Z,1005.31
2018-12-23T02:00:08.378Z,1005.34
2018-12-23T02:01:08.355Z,1005.29
2018-12-23T02:02:08.328Z,1005.32
2018-12-23T02:03:08.316Z,1005.34
2018-12-23T02:04:08.308Z,1005.33
2018-12-23T02:05:08.295Z,1005.30
2018-12-23T02:06:08.280Z,1005.32
2018-12-23T02:07:08.238Z,1005.34
2018-12-23T02:08:08.239Z,1005.28
2018-12-23T02:09:08.217Z,1005.26
2018-12-23T02:10:08.217Z,1005.26
2018-12-23T02:11:08.229Z,1005.28
2018-12-23T02:12:08.152Z,1005.26
2018-12-23T02:13:08.129Z,1005.26
2018-12-23T02:14:08.112Z,1005.28
2018-12-23T02:15:08.091Z,1005.25
2018-12-23T02:16:08.092Z,1005.33
2018-12-23T02:17:08.096Z,1005.36
2018-12-23T02:18:08.046Z,1005.34
2018-12-23T02:19:08.019Z,1005.29
2018-12-23T02:20:08.003Z,1005.34
2018-12-23T02:21:07.997Z,1005.29
2018-12-23T02:22:08.097Z,1005.27
2018-12-23T02:23:07.951Z,1005.29
2018-12-23T02:24:07.952Z,1005.30
2018-12-23T02:25:07.924Z,1005.33
2018-12-23T02:26:07.900Z,1005.27
2018-12-23T02:27:07.885Z,1005.28
2018-12-23T02:28:07.863Z,1005.30
2018-12-23T02:29:07.842Z,1005.30
2018-12-23T02:30:07.823Z,1005.32
2018-12-23T02:31:07.797Z,1005.32
2018-12-23T02:32:07.784Z,1005.32
2018-12-23T02:33:07.903Z,1005.30
2018-12-23T02:34:07.754Z,1005.32
2018-12-23T02:35:07.729Z,1005.37
2018-12-23T02:36:07.726Z,1005.41
2018-12-23T02:37:07.693Z,1005.35
2018-12-23T02:38:07.689Z,1005.36
2018-12-23T02:39:07.699Z,1005.47
2018-12-23T02:40:07.637Z,1005.48
2018-12-23T02:41:07.632Z,1005.43
2018-12-23T02:42:07.600Z,1005.46
2018-12-23T02:43:07.587Z,1005.47
2018-12-23T02:44:07.604Z,1005.46
2018-12-23T02:45:07.549Z,1005.42
2018-12-23T02:46:07.532Z,1005.44
2018-12-23T02:47:07.521Z,1005.46
2018-12-23T02:48:07.494Z,1005.47
2018-12-23T02:49:07.514Z,1005.47
2018-12-23T02:50:07.456Z,1005.44
2018-12-23T02:51:07.453Z,1005.44
2018-12-23T02:52:07.423Z,1005.41
2018-12-23T02:53:07.401Z,1005.43
2018-12-23T02:54:07.746Z,1005.46
2018-12-23T02:55:07.370Z,1005.44
2018-12-23T02:56:07.359Z,1005.42
2018-12-23T02:57:07.334Z,1005.45
2018-12-23T02:58:07.328Z,1005.39
2018-12-23T02:59:07.325Z,1005.46
2018-12-23T03:00:07.315Z,1005.45
2018-12-23T03:01:07.268Z,1005.43
2018-12-23T03:02:07.244Z,1005.39
2018-12-23T03:03:07.226Z,1005.44
2018-12-23T03:04:07.208Z,1005.44
2018-12-23T03:05:07.195Z,1005.41
2018-12-23T03:06:07.202Z,1005.44
2018-12-23T03:07:07.169Z,1005.40
2018-12-23T03:08:07.142Z,1005.41
2018-12-23T03:09:07.117Z,1005.44
2018-12-23T03:10:07.110Z,1005.41
2018-12-23T03:11:07.110Z,1005.43
2018-12-23T03:12:07.071Z,1005.47
2018-12-23T03:13:07.056Z,1005.43
2018-12-23T03:14:07.065Z,1005.45
2018-12-23T03:15:07.008Z,1005.48
2018-12-23T03:16:06.990Z,1005.47
2018-12-23T03:17:06.969Z,1005.38
2018-12-23T03:18:06.986Z,1005.40
2018-12-23T03:19:06.946Z,1005.42
2018-12-23T03:20:06.914Z,1005.39
2018-12-23T03:21:06.915Z,1005.41
2018-12-23T03:22:06.897Z,1005.41
2018-12-23T03:23:06.860Z,1005.44
2018-12-23T03:24:06.905Z,1005.41
2018-12-23T03:25:06.838Z,1005.44
2018-12-23T03:26:06.817Z,1005.41
2018-12-23T03:27:06.802Z,1005.35
2018-12-23T03:28:06.784Z,1005.32
2018-12-23T03:29:06.772Z,1005.26
2018-12-23T03:30:06.761Z,1005.28
2018-12-23T03:31:06.734Z,1005.32
2018-12-23T03:32:06.717Z,1005.27
2018-12-23T03:33:06.683Z,1005.30
2018-12-23T03:34:06.775Z,1005.35
2018-12-23T03:35:06.654Z,1005.39
2018-12-23T03:36:14.774Z,1005.40
2018-12-23T03:37:06.614Z,1005.35
2018-12-23T03:38:06.590Z,1005.31
2018-12-23T03:39:06.624Z,1005.31
2018-12-23T03:40:06.555Z,1005.34
2018-12-23T03:41:06.549Z,1005.31
2018-12-23T03:42:06.518Z,1005.29
2018-12-23T03:43:06.508Z,1005.29
2018-12-23T03:44:06.490Z,1005.31
2018-12-23T03:45:06.493Z,1005.27
2018-12-23T03:46:06.444Z,1005.30
2018-12-23T03:47:06.444Z,1005.32
2018-12-23T03:48:06.419Z,1005.26
2018-12-23T03:49:08.002Z,1005.30
2018-12-23T03:50:06.369Z,1005.29
2018-12-23T03:51:06.356Z,1005.27
2018-12-23T03:52:06.341Z,1005.29
2018-12-23T03:53:06.315Z,1005.29
2018-12-23T03:54:06.556Z,1005.34
2018-12-23T03:55:06.293Z,1005.33
2018-12-23T03:56:06.294Z,1005.32
2018-12-23T03:57:06.258Z,1005.35
2018-12-23T03:58:06.231Z,1005.22
2018-12-23T03:59:06.209Z,1005.29
2018-12-23T04:00:06.196Z,1005.29
2018-12-23T04:01:06.205Z,1005.26
2018-12-23T04:02:06.166Z,1005.29
2018-12-23T04:03:06.142Z,1005.24
2018-12-23T04:04:06.119Z,1005.25
2018-12-23T04:05:06.099Z,1005.24
2018-12-23T04:06:06.108Z,1005.24
2018-12-23T04:07:06.073Z,1005.25
2018-12-23T04:08:06.058Z,1005.28
2018-12-23T04:09:06.030Z,1005.30
2018-12-23T04:10:06.028Z,1005.33
2018-12-23T04:11:06.142Z,1005.32
2018-12-23T04:12:05.975Z,1005.36
2018-12-23T04:13:05.960Z,1005.34
2018-12-23T04:14:05.944Z,1005.36
2018-12-23T04:15:05.925Z,1005.35
2018-12-23T04:16:05.899Z,1005.41
2018-12-23T04:17:05.898Z,1005.41
2018-12-23T04:18:05.877Z,1005.43
2018-12-23T04:19:05.858Z,1005.37
2018-12-23T04:20:05.830Z,1005.41
2018-12-23T04:21:05.810Z,1005.42
2018-12-23T04:22:05.816Z,1005.44
2018-12-23T04:23:05.776Z,1005.44
2018-12-23T04:24:05.759Z,1005.44
2018-12-23T04:25:05.798Z,1005.46
2018-12-23T04:26:05.727Z,1005.43
2018-12-23T04:27:05.751Z,1005.43
2018-12-23T04:28:05.687Z,1005.39
2018-12-23T04:29:05.667Z,1005.38
2018-12-23T04:30:05.644Z,1005.36
2018-12-23T04:31:05.625Z,1005.37
2018-12-23T04:32:05.610Z,1005.42
2018-12-23T04:33:05.673Z,1005.39
2018-12-23T04:34:05.588Z,1005.41
2018-12-23T04:35:05.571Z,1005.38
2018-12-23T04:36:05.553Z,1005.34
2018-12-23T04:37:05.518Z,1005.37
2018-12-23T04:38:05.503Z,1005.39
2018-12-23T04:39:05.489Z,1005.33
2018-12-23T04:40:05.469Z,1005.36
2018-12-23T04:41:05.487Z,1005.31
2018-12-23T04:42:05.427Z,1005.29
2018-12-23T04:43:05.420Z,1005.37
2018-12-23T04:44:05.409Z,1005.33
2018-12-23T04:45:05.401Z,1005.28
2018-12-23T04:46:05.368Z,1005.33
2018-12-23T04:47:05.343Z,1005.31
2018-12-23T04:48:05.461Z,1005.32
2018-12-23T04:49:05.318Z,1005.31
2018-12-23T04:50:05.287Z,1005.30
2018-12-23T04:51:05.288Z,1005.28
2018-12-23T04:52:05.257Z,1005.28
2018-12-23T04:53:05.237Z,1005.25
2018-12-23T04:54:05.218Z,1005.28
2018-12-23T04:55:05.211Z,1005.26
2018-12-23T04:56:05.180Z,1005.23
2018-12-23T04:57:05.157Z,1005.20
2018-12-23T04:58:05.175Z,1005.23
2018-12-23T04:59:05.128Z,1005.19
2018-12-23T05:00:05.108Z,1005.20
2018-12-23T05:01:05.085Z,1005.20
2018-12-23T05:02:05.081Z,1005.24
2018-12-23T05:03:05.086Z,1005.27
2018-12-23T05:04:05.036Z,1005.24
2018-12-23T05:05:05.017Z,1005.28
2018-12-23T05:06:05.000Z,1005.24
2018-12-23T05:07:04.978Z,1005.21
2018-12-23T05:08:04.994Z,1005.21
2018-12-23T05:09:04.950Z,1005.21
2018-12-23T05:10:04.925Z,1005.22
2018-12-23T05:11:04.910Z,1005.22
2018-12-23T05:12:04.906Z,1005.13
2018-12-23T05:13:04.889Z,1005.20
2018-12-23T05:14:04.864Z,1005.18
2018-12-23T05:15:04.837Z,1005.12
2018-12-23T05:16:04.829Z,1005.17
2018-12-23T05:17:04.803Z,1005.07
2018-12-23T05:18:04.863Z,1005.07
2018-12-23T05:19:04.764Z,1005.02
2018-12-23T05:20:04.755Z,1005.05
2018-12-23T05:21:04.728Z,1005.08
2018-12-23T05:22:04.720Z,1005.03
2018-12-23T05:23:04.703Z,1005.10
2018-12-23T05:24:04.682Z,1005.09
2018-12-23T05:25:04.656Z,1005.08
2018-12-23T05:26:04.694Z,1005.04
2018-12-23T05:27:04.624Z,1005.06
2018-12-23T05:28:04.639Z,1005.06
2018-12-23T05:29:04.588Z,1005.12
2018-12-23T05:30:04.572Z,1005.10
2018-12-23T05:31:04.549Z,1005.15
2018-12-23T05:32:04.531Z,1005.15
2018-12-23T05:33:04.540Z,1005.09
2018-12-23T05:34:04.496Z,1005.15
2018-12-23T05:35:04.481Z,1005.16
2018-12-23T05:36:04.460Z,1005.14
2018-12-23T05:37:04.482Z,1005.14
2018-12-23T05:38:04.436Z,1005.17
2018-12-23T05:39:04.406Z,1005.18
2018-12-23T05:40:04.403Z,1005.14
2018-12-23T05:41:04.377Z,1005.13
2018-12-23T05:42:04.377Z,1005.15
2018-12-23T05:43:04.344Z,1005.19
2018-12-23T05:44:04.320Z,1005.24
2018-12-23T05:45:04.299Z,1005.21
2018-12-23T05:46:04.287Z,1005.17
2018-12-23T05:47:04.293Z,1005.16
2018-12-23T05:48:04.242Z,1005.13
2018-12-23T05:49:04.231Z,1005.13
2018-12-23T05:50:04.206Z,1005.14
2018-12-23T05:51:04.200Z,1005.11
2018-12-23T05:52:04.240Z,1005.11
2018-12-23T05:53:04.156Z,1005.11
2018-12-23T05:54:04.137Z,1005.14
2018-12-23T05:55:04.130Z,1005.16
2018-12-23T05:56:04.105Z,1005.22
2018-12-23T05:57:04.093Z,1005.22
2018-12-23T05:58:04.089Z,1005.18
2018-12-23T05:59:04.047Z,1005.19
2018-12-23T06:00:04.031Z,1005.21
2018-12-23T06:01:04.022Z,1005.19
2018-12-23T06:02:04.001Z,1005.22
2018-12-23T06:03:03.980Z,1005.21
2018-12-23T06:04:03.969Z,1005.24
2018-12-23T06:05:03.944Z,1005.21
2018-12-23T06:06:03.924Z,1005.17
2018-12-23T06:07:03.899Z,1005.21
2018-12-23T06:08:03.915Z,1005.20
2018-12-23T06:09:05.412Z,1005.19
2018-12-23T06:10:03.864Z,1005.22
2018-12-23T06:11:03.838Z,1005.28
2018-12-23T06:12:03.817Z,1005.25
2018-12-23T06:13:03.858Z,1005.29
2018-12-23T06:14:03.777Z,1005.27
2018-12-23T06:15:03.756Z,1005.30
2018-12-23T06:16:03.742Z,1005.32
2018-12-23T06:17:03.745Z,1005.33
2018-12-23T06:18:03.698Z,1005.32
2018-12-23T06:19:03.716Z,1005.33
2018-12-23T06:20:03.665Z,1005.35
2018-12-23T06:21:03.647Z,1005.33
2018-12-23T06:22:03.652Z,1005.28
2018-12-23T06:23:03.615Z,1005.32
2018-12-23T06:24:03.744Z,1005.34
2018-12-23T06:25:03.578Z,1005.32
2018-12-23T06:26:03.573Z,1005.36
2018-12-23T06:27:03.542Z,1005.35
2018-12-23T06:28:03.526Z,1005.42
2018-12-23T06:29:03.500Z,1005.40
2018-12-23T06:30:03.538Z,1005.40
2018-12-23T06:31:03.474Z,1005.40
2018-12-23T06:32:03.473Z,1005.39
2018-12-23T06:33:03.535Z,1005.41
2018-12-23T06:34:03.591Z,1005.40
2018-12-23T06:35:03.428Z,1005.39
2018-12-23T06:36:03.377Z,1005.40
2018-12-23T06:37:09.962Z,1005.37
2018-12-23T06:38:03.341Z,1005.44
2018-12-23T06:39:03.317Z,1005.41
2018-12-23T06:40:03.325Z,1005.40
2018-12-23T06:41:03.282Z,1005.44
2018-12-23T06:42:03.273Z,1005.40
2018-12-23T06:43:03.264Z,1005.39
2018-12-23T06:44:03.236Z,1005.41
2018-12-23T06:45:03.296Z,1005.46
2018-12-23T06:46:03.199Z,1005.42
2018-12-23T06:47:03.228Z,1005.39
2018-12-23T06:48:03.173Z,1005.41
2018-12-23T06:49:03.146Z,1005.38
2018-12-23T06:50:03.124Z,1005.41
2018-12-23T06:51:03.106Z,1005.36
2018-12-23T06:52:03.241Z,1005.42
2018-12-23T06:53:03.068Z,1005.38
2018-12-23T06:54:03.067Z,1005.42
2018-12-23T06:55:03.036Z,1005.42
2018-12-23T06:56:03.017Z,1005.39
2018-12-23T06:57:02.997Z,1005.40
2018-12-23T06:58:03.002Z,1005.42
2018-12-23T06:59:02.994Z,1005.43
2018-12-23T07:00:02.951Z,1005.47
2018-12-23T07:01:02.928Z,1005.46
2018-12-23T07:02:02.920Z,1005.45
2018-12-23T07:03:02.903Z,1005.43
2018-12-23T07:04:02.880Z,1005.48
2018-12-23T07:05:02.851Z,1005.47
2018-12-23T07:06:02.847Z,1005.43
2018-12-23T07:07:02.822Z,1005.45
2018-12-23T07:08:02.829Z,1005.41
2018-12-23T07:09:02.824Z,1005.43
2018-12-23T07:10:02.776Z,1005.44
2018-12-23T07:11:02.744Z,1005.50
2018-12-23T07:12:02.734Z,1005.52
2018-12-23T07:13:02.709Z,1005.53
2018-12-23T07:14:02.690Z,1005.49
2018-12-23T07:15:02.689Z,1005.53
2018-12-23T07:16:02.668Z,1005.59
2018-12-23T07:17:02.640Z,1005.53
2018-12-23T07:18:02.622Z,1005.52
2018-12-23T07:19:02.642Z,1005.51
2018-12-23T07:20:02.593Z,1005.50
2018-12-23T07:21:02.568Z,1005.55
2018-12-23T07:22:02.558Z,1005.55
2018-12-23T07:23:02.528Z,1005.61
2018-12-23T07:24:02.509Z,1005.55
2018-12-23T07:25:02.530Z,1005.54
2018-12-23T07:26:02.478Z,1005.59
2018-12-23T07:27:02.455Z,1005.58
2018-12-23T07:28:02.451Z,1005.53
2018-12-23T07:29:02.416Z,1005.54
2018-12-23T07:30:02.448Z,1005.48
2018-12-23T07:31:02.415Z,1005.51
2018-12-23T07:32:02.368Z,1005.55
2018-12-23T07:33:02.347Z,1005.56
2018-12-23T07:34:02.340Z,1005.64
2018-12-23T07:35:02.323Z,1005.61
2018-12-23T07:36:02.322Z,1005.57
2018-12-23T07:37:02.284Z,1005.61
2018-12-23T07:38:02.258Z,1005.62
2018-12-23T07:39:02.252Z,1005.59
2018-12-23T07:40:02.239Z,1005.60
2018-12-23T07:41:02.234Z,1005.60
2018-12-23T07:42:02.186Z,1005.51
2018-12-23T07:43:02.163Z,1005.53
2018-12-23T07:44:02.156Z,1005.51
2018-12-23T07:45:02.153Z,1005.51
2018-12-23T07:46:02.159Z,1005.54
2018-12-23T07:47:02.093Z,1005.52
2018-12-23T07:48:02.089Z,1005.55
2018-12-23T07:49:02.060Z,1005.58
2018-12-23T07:50:02.038Z,1005.62
2018-12-23T07:51:02.079Z,1005.61
2018-12-23T07:52:02.064Z,1005.60
2018-12-23T07:53:01.990Z,1005.62
2018-12-23T07:54:01.966Z,1005.56
2018-12-23T07:55:01.961Z,1005.58
2018-12-23T07:56:01.938Z,1005.55
2018-12-23T07:57:02.067Z,1005.53
2018-12-23T07:58:01.903Z,1005.55
2018-12-23T07:59:01.888Z,1005.51
2018-12-23T08:00:01.874Z,1005.52
2018-12-23T08:01:01.855Z,1005.56
2018-12-23T08:02:01.822Z,1005.50
2018-12-23T08:03:01.846Z,1005.53
2018-12-23T08:04:01.797Z,1005.51
2018-12-23T08:05:01.782Z,1005.48
2018-12-23T08:06:01.752Z,1005.47
2018-12-23T08:07:01.746Z,1005.41
2018-12-23T08:08:01.764Z,1005.40
2018-12-23T08:09:01.738Z,1005.44
2018-12-23T08:10:01.822Z,1005.42
2018-12-23T08:11:01.658Z,1005.40
2018-12-23T08:12:01.658Z,1005.41
2018-12-23T08:13:01.624Z,1005.41
2018-12-23T08:14:01.605Z,1005.39
2018-12-23T08:15:01.591Z,1005.46
2018-12-23T08:16:01.570Z,1005.41
2018-12-23T08:17:01.552Z,1005.43
2018-12-23T08:18:01.542Z,1005.42
2018-12-23T08:19:01.520Z,1005.42
2018-12-23T08:20:01.503Z,1005.44
2018-12-23T08:21:01.621Z,1005.48
2018-12-23T08:22:01.460Z,1005.48
2018-12-23T08:23:01.442Z,1005.50
2018-12-23T08:24:01.426Z,1005.50
2018-12-23T08:25:01.421Z,1005.44
2018-12-23T08:26:01.390Z,1005.44
2018-12-23T08:27:01.409Z,1005.41
2018-12-23T08:28:01.351Z,1005.43
2018-12-23T08:29:01.335Z,1005.42
2018-12-23T08:30:01.330Z,1005.44
2018-12-23T08:31:01.303Z,1005.41
2018-12-23T08:32:01.326Z,1005.42
2018-12-23T08:33:01.284Z,1005.44
2018-12-23T08:34:01.252Z,1005.43
2018-12-23T08:35:01.233Z,1005.45
2018-12-23T08:36:01.209Z,1005.43
2018-12-23T08:37:01.231Z,1005.46
2018-12-23T08:38:01.184Z,1005.42
2018-12-23T08:39:01.157Z,1005.45
2018-12-23T08:40:01.150Z,1005.43
2018-12-23T08:41:01.120Z,1005.42
2018-12-23T08:42:01.168Z,1005.40
2018-12-23T08:43:01.093Z,1005.37
2018-12-23T08:44:01.074Z,1005.33
2018-12-23T08:45:01.052Z,1005.32
2018-12-23T08:46:01.033Z,1005.35
2018-12-23T08:47:01.015Z,1005.33
2018-12-23T08:48:01.014Z,1005.35
2018-12-23T08:49:00.980Z,1005.35
2018-12-23T08:50:00.955Z,1005.31
2018-12-23T08:51:00.935Z,1005.31
2018-12-23T08:52:00.968Z,1005.32
2018-12-23T08:53:00.924Z,1005.29
2018-12-23T08:54:00.889Z,1005.36
2018-12-23T08:55:00.868Z,1005.38
2018-12-23T08:56:00.863Z,1005.33
2018-12-23T08:57:00.864Z,1005.34
2018-12-23T08:58:00.873Z,1005.38
2018-12-23T08:59:00.808Z,1005.39
2018-12-23T09:00:00.783Z,1005.35
2018-12-23T09:01:00.764Z,1005.28
2018-12-23T09:02:00.758Z,1005.27
2018-12-23T09:03:00.735Z,1005.31
2018-12-23T09:04:00.772Z,1005.30
2018-12-23T09:05:00.698Z,1005.29
2018-12-23T09:06:00.678Z,1005.33
2018-12-23T09:07:00.659Z,1005.28
2018-12-23T09:08:00.642Z,1005.30
2018-12-23T09:09:00.615Z,1005.32
2018-12-23T09:10:00.650Z,1005.31
2018-12-23T09:11:00.589Z,1005.30
2018-12-23T09:12:00.582Z,1005.32
2018-12-23T09:13:00.550Z,1005.24
2018-12-23T09:14:00.531Z,1005.25
2018-12-23T09:15:00.554Z,1005.29
2018-12-23T09:16:00.505Z,1005.24
2018-12-23T09:17:00.482Z,1005.26
2018-12-23T09:18:00.466Z,1005.25
2018-12-23T09:19:00.440Z,1005.21
2018-12-23T09:20:00.489Z,1005.21
2018-12-23T09:21:00.402Z,1005.16
2018-12-23T09:22:00.390Z,1005.18
2018-12-23T09:23:00.367Z,1005.22
2018-12-23T09:24:00.367Z,1005.26
2018-12-23T09:25:00.335Z,1005.27
2018-12-23T09:26:00.609Z,1005.24
2018-12-23T09:27:00.307Z,1005.29
2018-12-23T09:28:00.283Z,1005.31
2018-12-23T09:29:00.262Z,1005.25
2018-12-23T09:30:00.278Z,1005.27
2018-12-23T09:31:00.227Z,1005.24
2018-12-23T09:32:00.255Z,1005.24
2018-12-23T09:33:00.204Z,1005.23
2018-12-23T09:34:00.170Z,1005.25
2018-12-23T09:35:00.155Z,1005.20
2018-12-23T09:36:00.192Z,1005.19
2018-12-23T09:37:00.117Z,1005.24
2018-12-23T09:38:01.595Z,1005.21
2018-12-23T09:39:00.078Z,1005.19
2018-12-23T09:40:00.113Z,1005.19
2018-12-23T09:41:00.048Z,1005.22
2018-12-23T09:42:00.063Z,1005.17
2018-12-23T09:43:00.011Z,1005.19
2018-12-23T09:44:00.034Z,1005.21
2018-12-23T09:44:59.986Z,1005.19
2018-12-23T09:45:59.956Z,1005.17
2018-12-23T09:46:59.970Z,1005.20
2018-12-23T09:47:59.920Z,1005.13
2018-12-23T09:48:59.936Z,1005.13
2018-12-23T09:50:00.022Z,1005.14
2018-12-23T09:50:59.868Z,1005.17
2018-12-23T09:51:59.850Z,1005.18
2018-12-23T09:52:59.832Z,1005.19
2018-12-23T09:53:59.819Z,1005.13
2018-12-23T09:54:59.811Z,1005.17
2018-12-23T09:55:59.788Z,1005.15
2018-12-23T09:56:59.774Z,1005.18
2018-12-23T09:57:59.749Z,1005.17
2018-12-23T09:58:59.760Z,1005.17
2018-12-23T09:59:59.743Z,1005.16
2018-12-23T10:00:59.692Z,1005.10
2018-12-23T10:01:59.674Z,1005.19
2018-12-23T10:02:59.670Z,1005.10
2018-12-23T10:03:59.638Z,1005.14
2018-12-23T10:04:59.656Z,1005.16
2018-12-23T10:05:59.600Z,1005.14
2018-12-23T10:06:59.592Z,1005.13
2018-12-23T10:07:59.568Z,1005.12
2018-12-23T10:08:59.690Z,1005.09
2018-12-23T10:09:59.531Z,1005.06
2018-12-23T10:10:59.525Z,1005.09
2018-12-23T10:11:59.500Z,1005.03
2018-12-23T10:12:59.480Z,1005.03
2018-12-23T10:13:59.476Z,1005.05
2018-12-23T10:14:59.483Z,1005.02
2018-12-23T10:15:59.435Z,1005.08
2018-12-23T10:16:59.406Z,1005.06
2018-12-23T10:17:59.406Z,1005.08
2018-12-23T10:18:59.404Z,1005.07
2018-12-23T10:19:59.352Z,1005.07
2018-12-23T10:20:59.337Z,1005.13
2018-12-23T10:21:59.323Z,1005.03
2018-12-23T10:22:59.303Z,1005.04
2018-12-23T10:23:59.311Z,1005.02
2018-12-23T10:24:59.267Z,1005.03
2018-12-23T10:25:59.255Z,1005.01
2018-12-23T10:26:59.242Z,1004.95
2018-12-23T10:27:59.224Z,1004.94
2018-12-23T10:28:59.242Z,1004.96
2018-12-23T10:29:59.222Z,1004.91
2018-12-23T10:30:59.171Z,1004.93
2018-12-23T10:31:59.142Z,1004.90
2018-12-23T10:32:59.121Z,1004.86
2018-12-23T10:33:59.106Z,1004.87
2018-12-23T10:34:59.230Z,1004.84
2018-12-23T10:35:59.068Z,1004.85
2018-12-23T10:36:59.057Z,1004.82
2018-12-23T10:37:59.032Z,1004.79
2018-12-23T10:38:59.020Z,1004.77
2018-12-23T10:39:59.005Z,1004.75
2018-12-23T10:40:58.994Z,1004.74
2018-12-23T10:41:58.961Z,1004.73
2018-12-23T10:42:58.956Z,1004.70
2018-12-23T10:43:58.948Z,1004.69
2018-12-23T10:44:58.929Z,1004.70
2018-12-23T10:45:58.908Z,1004.72
2018-12-23T10:46:58.888Z,1004.67
2018-12-23T10:47:58.862Z,1004.73
2018-12-23T10:48:58.848Z,1004.66
2018-12-23T10:49:58.825Z,1004.66
2018-12-23T10:50:58.868Z,1004.64
2018-12-23T10:51:58.787Z,1004.67
2018-12-23T10:52:58.773Z,1004.66
2018-12-23T10:53:58.751Z,1004.64
2018-12-23T10:54:58.735Z,1004.59
2018-12-23T10:55:58.746Z,1004.53
2018-12-23T10:56:58.709Z,1004.51
2018-12-23T10:57:58.704Z,1004.51
2018-12-23T10:58:58.669Z,1004.47
2018-12-23T10:59:58.642Z,1004.49
2018-12-23T11:00:58.650Z,1004.46
2018-12-23T11:01:58.620Z,1004.51
2018-12-23T11:02:58.596Z,1004.50
2018-12-23T11:03:58.571Z,1004.45
2018-12-23T11:04:58.554Z,1004.49
2018-12-23T11:05:58.572Z,1004.42
2018-12-23T11:06:58.518Z,1004.37
2018-12-23T11:07:58.514Z,1004.35
2018-12-23T11:08:59.165Z,1004.30
2018-12-23T11:10:02.264Z,1004.22
2018-12-23T11:10:58.457Z,1004.25
2018-12-23T11:11:58.444Z,1004.19
2018-12-23T11:12:58.419Z,1004.20
2018-12-23T11:13:58.398Z,1004.16
2018-12-23T11:14:58.378Z,1004.19
2018-12-23T11:15:58.375Z,1004.14
2018-12-23T11:16:58.353Z,1004.23
2018-12-23T11:17:58.334Z,1004.23
2018-12-23T11:18:58.326Z,1004.16
2018-12-23T11:19:58.299Z,1004.25
2018-12-23T11:20:58.288Z,1004.21
2018-12-23T11:21:58.260Z,1004.16
2018-12-23T11:22:58.254Z,1004.13
2018-12-23T11:23:58.216Z,1004.12
2018-12-23T11:24:58.200Z,1004.08
2018-12-23T11:25:58.183Z,1004.02
2018-12-23T11:26:58.197Z,1004.05
2018-12-23T11:27:58.160Z,1004.03
2018-12-23T11:28:58.125Z,1004.04
2018-12-23T11:29:58.111Z,1004.02
2018-12-23T11:30:58.096Z,1003.99
2018-12-23T11:31:58.083Z,1003.99
2018-12-23T11:32:58.061Z,1004.07
2018-12-23T11:33:58.105Z,1004.07
2018-12-23T11:34:58.019Z,1004.08
2018-12-23T11:35:58.003Z,1004.09
2018-12-23T11:36:57.998Z,1004.04
2018-12-23T11:37:57.984Z,1003.96
2018-12-23T11:38:57.951Z,1003.95
2018-12-23T11:39:57.943Z,1003.88
2018-12-23T11:40:57.928Z,1003.90
2018-12-23T11:41:57.909Z,1003.83
2018-12-23T11:42:57.913Z,1003.78
2018-12-23T11:43:57.863Z,1003.75
2018-12-23T11:44:57.848Z,1003.80
2018-12-23T11:45:57.836Z,1003.72
2018-12-23T11:46:57.808Z,1003.71
2018-12-23T11:47:57.815Z,1003.73
2018-12-23T11:48:57.794Z,1003.65
2018-12-23T11:49:57.751Z,1003.68
2018-12-23T11:50:57.752Z,1003.69
2018-12-23T11:51:57.716Z,1003.68
2018-12-23T11:52:57.833Z,1003.64
2018-12-23T11:53:57.693Z,1003.61
2018-12-23T11:54:57.681Z,1003.61
2018-12-23T11:55:57.658Z,1003.57
2018-12-23T11:56:57.636Z,1003.56
2018-12-23T11:57:57.611Z,1003.51
2018-12-23T11:58:57.732Z,1003.54
2018-12-23T11:59:57.589Z,1003.53
2018-12-23T12:00:57.565Z,1003.52
2018-12-23T12:01:57.539Z,1003.54
2018-12-23T12:02:57.524Z,1003.52
2018-12-23T12:03:57.701Z,1003.52
2018-12-23T12:04:57.527Z,1003.50